Stock Island, Florida
Current Conditions -  °F | °C
As of 2:53 PM on Monday 24 Nov 2014 (Local Time) from KEYW Reporting Station
Clear Clear  
Wind Chill: 82°   Ceiling: Unl
Heat Index: 94°   Visibility: 10mi
Dew Point: 81°   Wind: 9mph
Humidity: 97%   Direction: 130°SE
Pressure: 29.94"   Gusts: NA
Location:  24.5554°N, 81.8052°W
Report Text: KEYW 241953Z 13008KT 10SM CLR 28/27 A2994 RMK AO2 SLP139 T02780272 $
Loading
Personal Weather Stations






























Interactive Weather Map New forecast layout! Learn more

10-Day Weather Forecast

Advertisements
Track Severe Weather on mobile